BIENTT MET'MAP
version 2.0 !

Prvue avant fin octobre,
la nouvelle version sera
plus belle, plus complte
et hberge sur un serveur
3 fois plus puissant...
et toujours gratuite !


Pas compatible ?
Essayez la version Mobile !

SE CONNECTER : | S'inscrire | Disclaimer | Découvrir Orbifly |
Code OACI :
Lgende : VFR VFR Marginal IFR IFR Intensif IFR Trs Intensif
Visi :
Plafond :
>= 8 km
>= 3000ft
5 8 km
1000 3000 ft
1500m 5 km
500 1000 ft
800 1500m
200 500 ft
< 800m
< 200 ft

METAR - LFSN Nancy Essey - 15 Sep 2019 16:52 UTC
Data Sources :     NOAA   



- Altitude de l'aérodrome : 751 ft
- Code IATA : ENC
- Voir les cartes d'approche
- Pas de NOTAMs connus.


LFSN - Nancy Essey

Dernier METAR connu : 2015/08/11 08:00 LFSN 110800Z AUTO 05005KT 350V090 CAVOK 22/15 Q1018
Prévision TAF périmée.

Source NOAA


MET'MAP, la Météo Aéronautique d'un coup d'oeil ! - Copyright ORBIFLY Décembre 2007

Développement & Programmation : Alexandra Zaïnal
Co-Développement : Marc-Olivier Méhu
Soutien technique & logistique : Manuel Goepfert
Conception & Financement : Baudouin d'Aumeries